Camp Lake, WI (53109)

10:13 AM CST on March 01, 2015 (GMT -0600)
Center Lake | Change Station
CLOSE
Current Station
Personal Weather Station
Location: Salem, WI
Elevation: 800 ft
Nearby Weather Stations

Elev 800 ft 42.53 °N, 88.12 °W | Updated 14 minutes ago

Overcast
Overcast
28.2 °F
Feels Like 28 °F
N
2.0
Wind Variable Wind from SSW
Gusts 4.0 mph

Today
High -- | Low -- °F
--% Chance of Precip.
Yesterday
High -- | Low -- °F
Precip. -- in
6:28 AM 5:42 PM
Waxing Gibbous, 86% visible
Pressure 30.34 in
Visibility 4.0 miles
Clouds Scattered Clouds 600 ft
Mostly Cloudy 1900 ft
Windchill 28 °F
Dew Point 18 °F
Humidity 64%
Rainfall -999.00 in
Snow Depth Not available.
UV 2 out of 12
Pollen .50 out of 12
Air Quality Not available.
Flu Activity Not available.
SPECI KENW 011607Z 23003KT 4SM BR SCT006 BKN019 M07/M09 A3034 RMK AO2 T10721089

More Conditions Fewer Conditions

Pressure 30.34 in
Visibility 4.0 miles
Clouds Scattered Clouds 600 ft
Mostly Cloudy 1900 ft
Windchill 28 °F
Dew Point 18 °F
Humidity 64%
Rainfall -999.00 in
Snow Depth Not available.
UV 2 out of 12
Pollen .50 out of 12
Air Quality Not available.
Flu Activity Not available.
SPECI KENW 011607Z 23003KT 4SM BR SCT006 BKN019 M07/M09 A3034 RMK AO2 T10721089

More Conditions Fewer Conditions

10-Day Weather Forecast

Almanac

Astronomy

Mar. 01, 2015 Rise Set
Actual Time
Civil Twilight
Nautical Twilight
Astronomical Twilight
Moon
Length of Visible Light
Length of Day
Tomorrow will be .
, % of the Moon is Illuminated

Today's Extremes

State Highs State Lows

Community

WunderPhotos

Upload Photos

1,801,439 photos uploaded!

WunderBlogs® & News

Nearby

Air Quality

  Air Quality AQ Index Pollutant
Not available.

Snow Depth

Station Depth Elevation

Earthquake Activity

City Distance Mag. Time & Date
Minimum magnitude displayed is 2.5.

Coastal Water Temperatures

Place Temperature

Nearby Weather Stations